<?xml version='1.0' encoding='UTF-8'?>
<gpx xmlns="http://www.topografix.com/GPX/1/1" creator="www.balnam.be" version="1.1" xmlns:xsi="http://www.w3.org/2001/XMLSchema-instance" xsi:schemaLocation="http://www.topografix.com/GPX/1/1 http://www.topografix.com/GPX/1/1/gpx.xsd">
<trk>
<name>lhtvti7</name>
<cmt>v</cmt>
<desc>Vottem Sentier n°i7 Cité Gérard Cloes</desc>
<link href="https://chemins.be/vottem/sentier/i7"/><trkseg>
<trkpt lat="50.660545" lon="5.608483"><time>2026-05-08T16:21:13Z</time></trkpt>
<trkpt lat="50.660495" lon="5.608398"><time>2026-05-08T16:31:13Z</time></trkpt>
<trkpt lat="50.660440" lon="5.608162"><time>2026-05-08T16:41:13Z</time></trkpt>
<trkpt lat="50.660282" lon="5.607818"><time>2026-05-08T16:51:13Z</time></trkpt>
<trkpt lat="50.660116" lon="5.607654"><time>2026-05-08T17:01:13Z</time></trkpt>
<trkpt lat="50.659954" lon="5.607569"><time>2026-05-08T17:11:13Z</time></trkpt>
<trkpt lat="50.659803" lon="5.607536"><time>2026-05-08T17:21:13Z</time></trkpt>
<trkpt lat="50.659331" lon="5.607631"><time>2026-05-08T17:31:13Z</time></trkpt>
<trkpt lat="50.658763" lon="5.607657"><time>2026-05-08T17:41:13Z</time></trkpt>
<trkpt lat="50.658444" lon="5.607706"><time>2026-05-08T17:51:13Z</time></trkpt>
<trkpt lat="50.658030" lon="5.607822"><time>2026-05-08T18:01:13Z</time></trkpt>
<trkpt lat="50.657623" lon="5.607886"><time>2026-05-08T18:11:13Z</time></trkpt>
<trkpt lat="50.657544" lon="5.608115"><time>2026-05-08T18:21:13Z</time></trkpt>
<trkpt lat="50.657552" lon="5.608443"><time>2026-05-08T18:31:13Z</time></trkpt>
<trkpt lat="50.657566" lon="5.608861"><time>2026-05-08T18:41:13Z</time></trkpt>
<trkpt lat="50.657644" lon="5.609296"><time>2026-05-08T18:51:13Z</time></trkpt>
<trkpt lat="50.657668" lon="5.609757"><time>2026-05-08T19:01:13Z</time></trkpt>
<trkpt lat="50.657647" lon="5.610219"><time>2026-05-08T19:11:13Z</time></trkpt>
<trkpt lat="50.657620" lon="5.610750"><time>2026-05-08T19:21:13Z</time></trkpt>
<trkpt lat="50.657668" lon="5.611329"><time>2026-05-08T19:31:13Z</time></trkpt>
<trkpt lat="50.657732" lon="5.611683"><time>2026-05-08T19:41:13Z</time></trkpt>
<trkpt lat="50.657804" lon="5.612118"><time>2026-05-08T19:51:13Z</time></trkpt>
<trkpt lat="50.657909" lon="5.612461"><time>2026-05-08T20:01:13Z</time></trkpt>
<trkpt lat="50.658052" lon="5.612563"><time>2026-05-08T20:11:13Z</time></trkpt>
<trkpt lat="50.658205" lon="5.612574"><time>2026-05-08T20:21:13Z</time></trkpt>
<trkpt lat="50.658399" lon="5.612611"><time>2026-05-08T20:31:13Z</time></trkpt>
<trkpt lat="50.658579" lon="5.612735"><time>2026-05-08T20:41:13Z</time></trkpt>
<trkpt lat="50.658763" lon="5.612890"><time>2026-05-08T20:51:13Z</time></trkpt>
<trkpt lat="50.658957" lon="5.612938"><time>2026-05-08T21:01:13Z</time></trkpt>
<trkpt lat="50.659123" lon="5.612997"><time>2026-05-08T21:11:13Z</time></trkpt>
<trkpt lat="50.659275" lon="5.613110"><time>2026-05-08T21:21:13Z</time></trkpt>
<trkpt lat="50.659307" lon="5.613008"><time>2026-05-08T21:31:13Z</time></trkpt>
<trkpt lat="50.659225" lon="5.612783"><time>2026-05-08T21:41:13Z</time></trkpt>
<trkpt lat="50.659113" lon="5.612488"><time>2026-05-08T21:51:13Z</time></trkpt>
<trkpt lat="50.659055" lon="5.612246"><time>2026-05-08T22:01:13Z</time></trkpt>
<trkpt lat="50.658991" lon="5.611951"><time>2026-05-08T22:11:13Z</time></trkpt>
<trkpt lat="50.658899" lon="5.611646"><time>2026-05-08T22:21:13Z</time></trkpt>
<trkpt lat="50.658732" lon="5.611474"><time>2026-05-08T22:31:13Z</time></trkpt>
<trkpt lat="50.658596" lon="5.611308"><time>2026-05-08T22:41:13Z</time></trkpt>
<trkpt lat="50.658538" lon="5.611072"><time>2026-05-08T22:51:13Z</time></trkpt>
<trkpt lat="50.658341" lon="5.610653"><time>2026-05-08T23:01:13Z</time></trkpt>
<trkpt lat="50.658246" lon="5.610283"><time>2026-05-08T23:11:13Z</time></trkpt>
<trkpt lat="50.658232" lon="5.609924"><time>2026-05-08T23:21:13Z</time></trkpt>
<trkpt lat="50.658321" lon="5.609563"><time>2026-05-08T23:31:13Z</time></trkpt>
<trkpt lat="50.658351" lon="5.609441"><time>2026-05-08T23:41:13Z</time></trkpt>
<trkpt lat="50.658600" lon="5.609173"><time>2026-05-08T23:51:13Z</time></trkpt>
<trkpt lat="50.658797" lon="5.609017"><time>2026-05-09T00:01:13Z</time></trkpt>
<trkpt lat="50.658997" lon="5.608840"><time>2026-05-09T00:11:13Z</time></trkpt>
<trkpt lat="50.659198" lon="5.608867"><time>2026-05-09T00:21:13Z</time></trkpt>
<trkpt lat="50.659474" lon="5.609076"><time>2026-05-09T00:31:13Z</time></trkpt>
<trkpt lat="50.659746" lon="5.609602"><time>2026-05-09T00:41:13Z</time></trkpt>
<trkpt lat="50.659973" lon="5.610052"><time>2026-05-09T00:51:13Z</time></trkpt>
<trkpt lat="50.660130" lon="5.610594"><time>2026-05-09T01:01:13Z</time></trkpt>
<trkpt lat="50.660127" lon="5.610916"><time>2026-05-09T01:11:13Z</time></trkpt>
<trkpt lat="50.660024" lon="5.611383"><time>2026-05-09T01:21:13Z</time></trkpt>
<trkpt lat="50.660035" lon="5.611619"><time>2026-05-09T01:31:13Z</time></trkpt>
<trkpt lat="50.660099" lon="5.611892"><time>2026-05-09T01:41:13Z</time></trkpt>
<trkpt lat="50.660232" lon="5.612246"><time>2026-05-09T01:51:13Z</time></trkpt>
<trkpt lat="50.660273" lon="5.612381"><time>2026-05-09T02:01:13Z</time></trkpt>
<trkpt lat="50.660297" lon="5.612531"><time>2026-05-09T02:11:13Z</time></trkpt>
<trkpt lat="50.660365" lon="5.612617"><time>2026-05-09T02:21:13Z</time></trkpt>
<trkpt lat="50.660436" lon="5.612672"><time>2026-05-09T02:31:13Z</time></trkpt>
<trkpt lat="50.660524" lon="5.612740"><time>2026-05-09T02:41:13Z</time></trkpt>
<trkpt lat="50.660708" lon="5.612869"><time>2026-05-09T02:51:13Z</time></trkpt>
<trkpt lat="50.660914" lon="5.612892"><time>2026-05-09T03:01:13Z</time></trkpt>
</trkseg>
</trk>
</gpx>